Time;durP1;ratioP1;P1;durP2;ratioP2;P2;SDS_P1;SDS_P2;PMS_P1;PMS_P2;Temp;Humidity;BMP_temperature;BMP_pressure;BME280_temperature;BME280_humidity;BME280_pressure;Samples;Min_cycle;Max_cycle;Signal;HPM_P1;HPM_P2
2023/06/24 00:01:52;;;;;;;4.57;3.10;;;17.50;98.00;;;;;;5014192;28;20490;-68
2023/06/24 00:04:20;;;;;;;7.10;3.57;;;17.70;98.00;;;;;;5014252;28;20455;-67
2023/06/24 00:06:47;;;;;;;5.30;3.27;;;17.60;98.00;;;;;;5014083;28;20456;-68
2023/06/24 00:09:14;;;;;;;5.17;3.23;;;17.70;98.00;;;;;;5014284;28;20452;-67
2023/06/24 00:11:41;;;;;;;6.80;3.40;;;17.60;98.00;;;;;;5014422;28;20514;-68
2023/06/24 00:14:10;;;;;;;6.23;3.20;;;17.70;98.00;;;;;;5012920;28;20788;-68
2023/06/24 00:16:39;;;;;;;5.03;3.10;;;17.80;98.00;;;;;;5014039;28;20448;-67
2023/06/24 00:19:08;;;;;;;7.43;3.30;;;17.90;98.00;;;;;;5013933;28;20832;-68
2023/06/24 00:21:37;;;;;;;6.43;3.40;;;17.80;98.00;;;;;;5014143;28;20689;-68
2023/06/24 00:24:05;;;;;;;7.00;3.40;;;17.60;98.00;;;;;;5014009;28;20502;-67
2023/06/24 00:26:33;;;;;;;8.13;4.07;;;17.50;98.00;;;;;;5013961;28;20479;-68
2023/06/24 00:29:00;;;;;;;6.03;3.47;;;17.30;98.00;;;;;;5013828;28;20456;-68
2023/06/24 00:31:27;;;;;;;5.83;3.50;;;17.10;98.00;;;;;;5013587;28;20510;-67
2023/06/24 00:33:56;;;;;;;6.90;3.60;;;17.10;98.00;;;;;;5013643;28;20506;-68
2023/06/24 00:36:23;;;;;;;6.47;3.60;;;17.00;98.00;;;;;;5013453;28;20981;-68
2023/06/24 00:38:50;;;;;;;6.17;3.40;;;17.00;98.00;;;;;;5013207;28;20462;-68
2023/06/24 00:41:19;;;;;;;5.73;3.03;;;17.10;98.00;;;;;;5013406;28;20514;-68
2023/06/24 00:43:46;;;;;;;6.70;3.60;;;17.20;98.00;;;;;;5013219;28;21091;-67
2023/06/24 00:46:15;;;;;;;7.67;3.43;;;17.30;98.00;;;;;;5013332;28;20459;-68
2023/06/24 00:48:42;;;;;;;5.83;3.43;;;17.30;98.00;;;;;;5013227;28;20502;-68
2023/06/24 00:51:10;;;;;;;6.03;3.33;;;17.20;98.00;;;;;;5013255;28;20466;-68
2023/06/24 00:53:38;;;;;;;7.43;3.50;;;16.90;98.00;;;;;;5012968;28;20478;-68
2023/06/24 00:56:06;;;;;;;5.33;3.30;;;16.70;98.00;;;;;;5012596;28;20546;-68
2023/06/24 00:58:36;;;;;;;5.17;3.33;;;16.60;98.00;;;;;;5013171;28;20458;-68
2023/06/24 01:01:05;;;;;;;5.83;3.17;;;16.60;98.00;;;;;;5013093;28;21225;-68
2023/06/24 01:03:33;;;;;;;7.00;3.30;;;16.80;98.00;;;;;;5013020;28;20498;-68
2023/06/24 01:06:00;;;;;;;6.03;3.43;;;16.80;98.00;;;;;;5013228;28;20439;-68
2023/06/24 01:08:28;;;;;;;5.43;3.43;;;16.70;98.00;;;;;;5012917;28;20452;-68
2023/06/24 01:10:55;;;;;;;5.70;3.30;;;16.60;98.00;;;;;;5013050;28;20466;-67
2023/06/24 01:13:22;;;;;;;5.37;3.23;;;16.60;98.00;;;;;;5013303;28;20834;-68
2023/06/24 01:15:50;;;;;;;6.73;3.57;;;16.70;98.00;;;;;;5012979;28;20448;-68
2023/06/24 01:18:25;;;;;;;5.27;3.20;;;16.60;98.00;;;;;;5013015;28;20463;-68
2023/06/24 01:20:57;;;;;;;5.87;3.20;;;16.60;98.00;;;;;;5013001;28;20505;-67
2023/06/24 01:23:52;;;;;;;4.87;3.40;;;16.60;98.00;;;;;;5012752;28;20491;-68
2023/06/24 01:26:42;;;;;;;4.33;2.80;;;16.50;98.00;;;;;;5012702;28;20808;-67
2023/06/24 01:29:51;;;;;;;6.13;3.20;;;16.50;98.00;;;;;;5012604;28;20455;-68
2023/06/24 01:32:28;;;;;;;5.20;3.10;;;16.40;98.00;;;;;;5011405;28;20470;-68
2023/06/24 01:34:59;;;;;;;5.93;2.80;;;16.30;98.00;;;;;;5012235;28;20559;-68
2023/06/24 01:37:31;;;;;;;4.90;3.10;;;16.30;98.00;;;;;;5012088;28;20459;-68
2023/06/24 01:40:09;;;;;;;6.70;3.60;;;16.50;98.00;;;;;;5012525;28;20471;-67
2023/06/24 01:42:39;;;;;;;11.20;3.20;;;16.30;98.00;;;;;;5013050;28;20514;-67
2023/06/24 01:45:10;;;;;;;7.03;3.30;;;16.20;98.00;;;;;;5012292;28;20482;-67
2023/06/24 01:47:41;;;;;;;9.37;3.80;;;16.30;98.00;;;;;;5012508;28;20459;-67
2023/06/24 01:50:13;;;;;;;4.50;3.00;;;16.40;98.00;;;;;;5012240;28;20456;-68
2023/06/24 01:52:44;;;;;;;5.40;3.10;;;16.40;98.00;;;;;;5012554;28;20454;-69
2023/06/24 01:55:14;;;;;;;5.57;3.53;;;16.20;98.00;;;;;;5012315;28;20495;-68
2023/06/24 01:57:43;;;;;;;6.47;3.43;;;16.00;98.00;;;;;;5012571;28;20505;-68
2023/06/24 02:00:12;;;;;;;6.53;3.30;;;16.00;98.00;;;;;;5011984;28;20459;-67
2023/06/24 02:02:41;;;;;;;6.83;3.60;;;15.90;98.00;;;;;;5011953;28;20479;-68
2023/06/24 02:05:10;;;;;;;6.70;3.80;;;15.90;98.00;;;;;;5012193;28;20797;-67
2023/06/24 02:07:39;;;;;;;5.87;3.20;;;15.80;98.00;;;;;;5012224;28;20455;-68
2023/06/24 02:10:08;;;;;;;6.33;3.73;;;15.80;98.00;;;;;;5012191;28;20930;-68
2023/06/24 02:12:38;;;;;;;6.50;3.43;;;15.80;98.00;;;;;;5012452;28;20502;-68
2023/06/24 02:15:07;;;;;;;5.57;3.50;;;15.80;98.00;;;;;;5012231;28;20553;-67
2023/06/24 02:17:35;;;;;;;5.37;2.87;;;15.80;98.00;;;;;;5012358;28;20539;-67
2023/06/24 02:20:08;;;;;;;5.10;3.30;;;15.90;98.00;;;;;;5012022;28;20452;-68
2023/06/24 02:22:37;;;;;;;8.10;3.30;;;15.90;98.00;;;;;;5012042;28;20486;-68
2023/06/24 02:25:06;;;;;;;5.23;3.23;;;15.80;98.00;;;;;;5011776;28;20456;-67
2023/06/24 02:27:33;;;;;;;6.70;3.43;;;15.70;98.00;;;;;;5012029;28;20509;-68
2023/06/24 02:30:01;;;;;;;8.90;4.03;;;15.60;98.00;;;;;;5011833;28;20451;-68
2023/06/24 02:32:29;;;;;;;8.40;3.67;;;15.40;98.00;;;;;;5011832;28;20458;-68
2023/06/24 02:34:58;;;;;;;5.77;3.00;;;15.40;98.00;;;;;;5011586;28;20459;-68
2023/06/24 02:37:26;;;;;;;5.70;3.97;;;15.40;98.00;;;;;;5012024;28;20459;-68
2023/06/24 02:39:53;;;;;;;5.40;3.43;;;15.40;98.00;;;;;;5011802;28;20471;-68
2023/06/24 02:42:21;;;;;;;6.13;3.50;;;15.40;98.00;;;;;;5011842;28;21147;-68
2023/06/24 02:44:48;;;;;;;8.67;3.30;;;15.40;98.00;;;;;;5011846;28;20454;-68
2023/06/24 02:47:17;;;;;;;6.70;3.67;;;15.40;98.00;;;;;;5012078;28;20468;-68
2023/06/24 02:49:47;;;;;;;6.27;3.40;;;15.30;98.00;;;;;;5011791;28;20513;-68
2023/06/24 02:52:15;;;;;;;7.70;3.77;;;15.20;98.00;;;;;;5011992;28;20456;-67
2023/06/24 02:54:47;;;;;;;6.97;3.37;;;15.30;98.00;;;;;;5011517;28;20455;-68
2023/06/24 02:57:15;;;;;;;7.53;3.87;;;15.40;98.00;;;;;;5012200;28;20451;-68
2023/06/24 02:59:43;;;;;;;5.10;3.30;;;15.30;98.00;;;;;;5011714;28;20503;-68
2023/06/24 03:02:10;;;;;;;7.07;4.07;;;15.20;98.00;;;;;;5011776;28;20816;-68
2023/06/24 03:04:39;;;;;;;5.20;3.07;;;15.10;98.00;;;;;;5011913;28;20494;-68
2023/06/24 03:07:10;;;;;;;5.23;3.10;;;15.20;98.00;;;;;;5011829;28;20491;-68
2023/06/24 03:09:37;;;;;;;7.90;3.40;;;15.10;98.00;;;;;;5011889;28;20506;-68
2023/06/24 03:12:08;;;;;;;5.43;3.60;;;15.10;98.00;;;;;;5011651;28;20525;-68
2023/06/24 03:14:34;;;;;;;5.10;3.40;;;15.20;98.00;;;;;;5009984;28;20466;-68
2023/06/24 03:17:02;;;;;;;5.80;3.53;;;15.30;98.00;;;;;;5011465;28;20482;-68
2023/06/24 03:19:29;;;;;;;5.87;3.27;;;15.30;98.00;;;;;;5014235;28;20984;-68
2023/06/24 03:21:57;;;;;;;6.80;3.33;;;15.20;98.00;;;;;;5015032;28;20533;-68
2023/06/24 03:24:24;;;;;;;5.90;3.50;;;15.00;98.00;;;;;;5014706;28;20475;-68
2023/06/24 03:26:56;;;;;;;5.50;3.30;;;15.00;98.00;;;;;;5014861;28;20872;-68
2023/06/24 03:29:25;;;;;;;6.37;3.63;;;15.00;98.00;;;;;;5014886;28;20489;-68
2023/06/24 03:31:53;;;;;;;5.60;3.47;;;15.00;98.00;;;;;;5014756;28;20976;-68
2023/06/24 03:34:21;;;;;;;4.40;3.10;;;14.90;98.00;;;;;;5014542;28;20459;-68
2023/06/24 03:36:48;;;;;;;6.10;3.37;;;14.90;98.00;;;;;;5014664;28;20460;-67
2023/06/24 03:39:15;;;;;;;5.97;3.20;;;14.90;98.00;;;;;;5014427;28;20471;-68
2023/06/24 03:41:42;;;;;;;8.10;3.83;;;15.00;98.00;;;;;;5014678;28;20936;-67
2023/06/24 03:44:09;;;;;;;6.50;3.30;;;14.90;98.00;;;;;;5014487;28;20568;-67
2023/06/24 03:46:38;;;;;;;5.47;2.90;;;14.90;98.00;;;;;;5014622;28;20579;-68
2023/06/24 03:49:06;;;;;;;5.70;3.57;;;15.10;98.00;;;;;;5014357;28;20467;-68
2023/06/24 03:51:33;;;;;;;5.57;3.20;;;15.40;98.00;;;;;;5014768;28;20456;-68
2023/06/24 03:54:00;;;;;;;5.57;3.00;;;15.50;98.00;;;;;;5014479;28;20463;-68
2023/06/24 03:56:27;;;;;;;5.07;3.23;;;15.60;98.00;;;;;;5014565;28;20454;-67
2023/06/24 03:58:54;;;;;;;5.40;3.37;;;15.60;98.00;;;;;;5014456;28;20456;-67
2023/06/24 04:01:21;;;;;;;4.07;2.80;;;15.50;98.00;;;;;;5014434;28;20938;-68
2023/06/24 04:03:50;;;;;;;5.23;3.23;;;15.50;98.00;;;;;;5014070;28;20488;-67
2023/06/24 04:06:17;;;;;;;6.47;3.40;;;15.50;98.00;;;;;;5014325;28;20459;-67
2023/06/24 04:08:44;;;;;;;5.73;3.30;;;15.60;98.00;;;;;;5014001;28;20962;-67
2023/06/24 04:11:12;;;;;;;6.00;3.27;;;15.60;98.00;;;;;;5014024;28;20448;-68
2023/06/24 04:13:39;;;;;;;10.70;4.13;;;15.70;98.00;;;;;;5013911;28;20490;-67
2023/06/24 04:16:06;;;;;;;6.50;3.53;;;15.50;98.00;;;;;;5013864;28;21027;-68
2023/06/24 04:18:37;;;;;;;5.80;3.40;;;15.40;98.00;;;;;;5013980;28;20463;-68
2023/06/24 04:21:06;;;;;;;6.37;3.47;;;15.40;98.00;;;;;;5013808;28;20482;-68
2023/06/24 04:23:33;;;;;;;9.43;4.00;;;15.50;98.00;;;;;;5013847;28;20491;-68
2023/06/24 04:26:00;;;;;;;5.43;3.30;;;15.60;98.00;;;;;;5013595;28;20961;-68
2023/06/24 04:28:27;;;;;;;6.77;3.83;;;15.70;98.00;;;;;;5013346;28;20459;-68
2023/06/24 04:30:55;;;;;;;5.10;3.30;;;15.90;98.00;;;;;;5013657;28;20460;-67
2023/06/24 04:33:23;;;;;;;5.73;3.67;;;15.90;98.00;;;;;;5013545;28;20455;-68
2023/06/24 04:35:51;;;;;;;6.97;3.67;;;15.90;98.00;;;;;;5013558;28;20455;-68
2023/06/24 04:38:19;;;;;;;8.00;4.50;;;15.80;98.00;;;;;;5013275;28;20447;-68
2023/06/24 04:40:46;;;;;;;6.03;3.53;;;15.70;98.00;;;;;;5013509;28;20467;-68
2023/06/24 04:43:13;;;;;;;8.57;4.23;;;15.80;98.00;;;;;;5013311;28;20482;-68
2023/06/24 04:45:40;;;;;;;6.23;3.40;;;15.90;98.00;;;;;;5013418;28;20995;-67
2023/06/24 04:48:07;;;;;;;5.37;3.20;;;16.00;98.00;;;;;;5013431;28;20973;-68
2023/06/24 04:50:34;;;;;;;5.60;3.37;;;16.10;98.00;;;;;;5013344;28;20460;-67
2023/06/24 04:53:02;;;;;;;6.00;3.67;;;16.10;98.00;;;;;;5013445;28;20455;-68
2023/06/24 04:55:30;;;;;;;5.90;3.50;;;16.10;98.00;;;;;;5013309;28;20456;-68
2023/06/24 04:57:57;;;;;;;6.80;4.10;;;16.30;98.00;;;;;;5013328;28;20547;-68
2023/06/24 05:00:25;;;;;;;6.53;3.80;;;16.60;98.00;;;;;;5013324;28;20455;-68
2023/06/24 05:02:52;;;;;;;6.33;3.83;;;16.80;98.00;;;;;;5011885;28;20506;-68
2023/06/24 05:05:20;;;;;;;10.53;4.27;;;16.90;98.00;;;;;;5013203;28;20815;-68
2023/06/24 05:07:47;;;;;;;6.17;3.70;;;16.90;98.00;;;;;;5012908;28;20480;-68
2023/06/24 05:10:14;;;;;;;4.70;3.17;;;16.90;98.00;;;;;;5012869;28;21124;-68
2023/06/24 05:12:42;;;;;;;6.10;3.40;;;16.70;98.00;;;;;;5012925;28;20464;-67
2023/06/24 05:15:10;;;;;;;5.80;2.90;;;16.70;98.00;;;;;;5011786;28;21187;-68
2023/06/24 05:17:37;;;;;;;6.93;3.70;;;16.80;98.00;;;;;;5012383;28;20536;-68
2023/06/24 05:20:05;;;;;;;5.57;3.43;;;17.00;98.00;;;;;;5012598;28;20606;-68
2023/06/24 05:22:32;;;;;;;7.53;3.60;;;16.90;98.00;;;;;;5012702;28;20463;-68
2023/06/24 05:25:00;;;;;;;6.40;3.47;;;17.00;98.00;;;;;;5012528;28;20483;-68
2023/06/24 05:27:28;;;;;;;6.17;3.73;;;17.00;98.00;;;;;;5012759;28;20459;-68
2023/06/24 05:29:57;;;;;;;6.87;3.30;;;17.10;98.00;;;;;;5010616;28;20459;-68
2023/06/24 05:32:24;;;;;;;7.30;3.90;;;17.30;98.00;;;;;;5012726;28;20451;-68
2023/06/24 05:34:51;;;;;;;8.33;3.90;;;17.40;98.00;;;;;;5012567;28;20466;-68
2023/06/24 05:37:18;;;;;;;5.53;3.27;;;17.40;98.00;;;;;;5012478;28;20468;-68
2023/06/24 05:39:45;;;;;;;6.10;3.63;;;17.50;98.00;;;;;;5012420;28;20463;-68
2023/06/24 05:42:12;;;;;;;5.80;3.37;;;17.50;98.00;;;;;;5012002;28;20456;-68
2023/06/24 05:44:39;;;;;;;6.00;3.53;;;17.40;98.00;;;;;;5012440;28;21084;-68
2023/06/24 05:47:08;;;;;;;5.77;3.23;;;17.40;98.00;;;;;;5012569;28;20451;-68
2023/06/24 05:49:35;;;;;;;7.30;3.70;;;17.50;98.00;;;;;;5012453;28;20460;-69
2023/06/24 05:52:02;;;;;;;6.27;3.30;;;17.60;98.00;;;;;;5012594;28;20460;-68
2023/06/24 05:54:30;;;;;;;5.97;3.63;;;17.70;98.00;;;;;;5012352;28;20946;-68
2023/06/24 05:56:57;;;;;;;5.20;3.20;;;17.80;98.00;;;;;;5011708;28;21216;-68
2023/06/24 05:59:24;;;;;;;5.70;3.37;;;17.90;98.00;;;;;;5012192;28;20455;-68
2023/06/24 06:01:51;;;;;;;5.07;3.23;;;18.10;98.00;;;;;;5012178;28;20862;-68
2023/06/24 06:04:20;;;;;;;5.63;3.43;;;18.10;98.00;;;;;;5010680;28;21047;-68
2023/06/24 06:06:53;;;;;;;6.40;3.80;;;18.30;98.00;;;;;;5012078;28;21145;-68
2023/06/24 06:09:22;;;;;;;6.80;3.77;;;18.40;98.00;;;;;;5011843;28;20459;-68
2023/06/24 06:11:50;;;;;;;8.20;3.97;;;18.50;98.00;;;;;;5012158;28;20448;-67
2023/06/24 06:14:17;;;;;;;5.80;3.67;;;18.50;98.00;;;;;;5010872;28;20910;-68
2023/06/24 06:16:44;;;;;;;5.87;3.23;;;18.60;98.00;;;;;;5012062;28;20448;-69
2023/06/24 06:19:11;;;;;;;6.57;3.80;;;18.70;98.00;;;;;;5012032;28;20460;-68
2023/06/24 06:21:39;;;;;;;5.00;2.90;;;18.70;98.00;;;;;;5012054;28;20869;-68
2023/06/24 06:24:07;;;;;;;5.80;3.40;;;18.80;98.00;;;;;;5011907;28;20483;-68
2023/06/24 06:26:34;;;;;;;6.67;3.60;;;18.90;98.00;;;;;;5012106;28;20853;-68
2023/06/24 06:29:01;;;;;;;4.10;3.03;;;19.00;98.00;;;;;;5011943;28;20459;-68
2023/06/24 06:31:28;;;;;;;6.23;3.60;;;19.10;98.00;;;;;;5012032;28;20513;-68
2023/06/24 06:33:55;;;;;;;5.80;3.90;;;19.10;98.00;;;;;;5012044;28;20970;-68
2023/06/24 06:36:22;;;;;;;6.10;3.40;;;19.20;98.00;;;;;;5012214;28;20459;-68
2023/06/24 06:38:50;;;;;;;5.97;3.57;;;19.30;98.00;;;;;;5011762;28;20477;-68
2023/06/24 06:41:24;;;;;;;5.57;3.27;;;19.40;98.00;;;;;;5012062;28;20501;-69
2023/06/24 06:43:51;;;;;;;5.93;3.47;;;19.40;98.00;;;;;;5011917;28;20493;-68
2023/06/24 06:46:18;;;;;;;7.17;3.67;;;19.50;98.00;;;;;;5012248;28;20478;-69
2023/06/24 06:48:45;;;;;;;7.70;4.07;;;19.70;98.00;;;;;;5011863;28;20461;-68
2023/06/24 06:51:13;;;;;;;6.10;4.10;;;19.80;98.00;;;;;;5011679;28;20463;-68
2023/06/24 06:53:40;;;;;;;7.27;3.70;;;19.90;98.00;;;;;;5015285;28;20526;-68
2023/06/24 06:56:08;;;;;;;7.43;4.23;;;20.10;98.00;;;;;;5015285;28;20448;-66
2023/06/24 06:58:35;;;;;;;5.80;3.80;;;20.20;98.00;;;;;;5015434;28;20510;-66
2023/06/24 07:01:04;;;;;;;6.67;3.90;;;20.30;98.00;;;;;;5015193;28;20467;-66
2023/06/24 07:03:32;;;;;;;8.17;4.30;;;20.40;98.00;;;;;;5014989;28;20451;-66
2023/06/24 07:06:01;;;;;;;6.47;3.17;;;20.60;98.00;;;;;;5015188;28;21071;-67
2023/06/24 07:08:28;;;;;;;4.20;2.90;;;20.80;98.00;;;;;;5015317;28;20602;-67
2023/06/24 07:10:55;;;;;;;4.13;2.73;;;21.10;98.00;;;;;;5014817;28;20510;-66
2023/06/24 07:13:23;;;;;;;4.93;3.30;;;21.30;98.00;;;;;;5015125;28;21022;-67
2023/06/24 07:15:50;;;;;;;4.73;3.13;;;21.60;98.00;;;;;;5015136;28;20455;-66
2023/06/24 07:18:17;;;;;;;6.43;3.20;;;21.90;98.00;;;;;;5015337;28;20459;-67
2023/06/24 07:20:44;;;;;;;5.70;3.50;;;22.10;98.00;;;;;;5015149;28;20447;-67
2023/06/24 07:23:11;;;;;;;5.73;3.67;;;22.20;98.00;;;;;;5015220;28;20458;-67
2023/06/24 07:25:38;;;;;;;6.20;3.40;;;22.40;98.00;;;;;;5015003;28;20479;-68
2023/06/24 07:28:05;;;;;;;7.00;4.20;;;22.50;98.00;;;;;;5014483;28;20510;-66
2023/06/24 07:30:34;;;;;;;4.80;3.07;;;22.70;98.00;;;;;;5014717;28;20455;-67
2023/06/24 07:33:05;;;;;;;6.10;3.50;;;22.70;98.00;;;;;;5017207;28;20447;-66
2023/06/24 07:35:39;;;;;;;4.83;2.93;;;22.70;98.00;;;;;;5014873;28;20505;-67
2023/06/24 07:38:06;;;;;;;5.23;3.27;;;22.80;98.00;;;;;;5014973;28;20459;-66
2023/06/24 07:40:33;;;;;;;5.97;3.67;;;22.90;98.00;;;;;;5014866;28;20537;-67
2023/06/24 07:43:00;;;;;;;5.07;3.67;;;23.10;98.00;;;;;;5014702;28;20518;-67
2023/06/24 07:45:27;;;;;;;5.23;3.77;;;23.30;98.00;;;;;;5014649;28;20487;-67
2023/06/24 07:47:56;;;;;;;7.93;3.50;;;23.40;98.00;;;;;;5014329;28;20466;-66
2023/06/24 07:50:24;;;;;;;5.73;3.10;;;23.40;98.00;;;;;;5014314;28;20478;-66
2023/06/24 07:52:53;;;;;;;6.53;3.50;;;23.50;98.00;;;;;;5014130;28;20997;-67
2023/06/24 07:55:20;;;;;;;5.00;3.27;;;23.60;98.00;;;;;;5014344;28;20466;-67
2023/06/24 07:57:47;;;;;;;5.97;3.00;;;23.70;97.10;;;;;;5014165;28;20451;-67
2023/06/24 08:00:15;;;;;;;5.13;3.40;;;23.80;98.00;;;;;;5014243;28;20472;-68
2023/06/24 08:02:42;;;;;;;5.03;3.00;;;23.80;96.30;;;;;;5014151;28;20467;-67
2023/06/24 08:05:11;;;;;;;5.07;3.00;;;23.90;96.50;;;;;;5012713;28;20475;-66
2023/06/24 08:07:39;;;;;;;5.10;3.07;;;24.00;97.10;;;;;;5012505;28;20467;-66
2023/06/24 08:10:09;;;;;;;5.30;3.60;;;24.10;97.00;;;;;;5012775;28;20521;-66
2023/06/24 08:12:36;;;;;;;4.80;3.33;;;24.20;94.10;;;;;;5012007;28;20456;-66
2023/06/24 08:15:03;;;;;;;4.87;2.93;;;24.20;93.90;;;;;;5012860;28;20472;-66
2023/06/24 08:17:30;;;;;;;5.77;3.60;;;24.20;93.60;;;;;;5013173;28;20478;-67
2023/06/24 08:19:57;;;;;;;5.20;3.33;;;24.20;93.20;;;;;;5013169;28;20456;-67
2023/06/24 08:22:26;;;;;;;5.47;3.70;;;24.20;92.90;;;;;;5013969;28;20805;-66
2023/06/24 08:24:53;;;;;;;5.23;3.37;;;24.10;92.60;;;;;;5013354;28;20483;-66
2023/06/24 08:27:20;;;;;;;9.43;3.80;;;24.00;92.60;;;;;;5013698;28;20943;-66
2023/06/24 08:29:47;;;;;;;5.70;3.60;;;24.00;93.30;;;;;;5016953;28;20917;-67
2023/06/24 08:32:14;;;;;;;5.10;3.50;;;24.20;93.40;;;;;;5013060;28;20973;-66
2023/06/24 08:34:41;;;;;;;7.57;3.00;;;24.40;92.40;;;;;;5013075;28;20456;-66
2023/06/24 08:37:08;;;;;;;4.43;3.03;;;24.40;92.20;;;;;;5011761;28;20452;-66
2023/06/24 08:39:38;;;;;;;4.53;3.27;;;24.50;92.30;;;;;;5012774;28;20738;-66
2023/06/24 08:42:06;;;;;;;4.50;3.03;;;24.80;91.70;;;;;;5010778;28;20506;-66
2023/06/24 08:44:38;;;;;;;5.03;3.20;;;24.90;91.00;;;;;;5012786;28;20483;-66
2023/06/24 08:47:06;;;;;;;4.37;3.00;;;25.00;90.00;;;;;;5012666;28;20957;-66
2023/06/24 08:49:35;;;;;;;5.63;3.37;;;25.10;90.20;;;;;;5012716;28;20451;-66
2023/06/24 08:52:06;;;;;;;5.13;3.23;;;25.20;90.20;;;;;;5012686;28;20463;-66
2023/06/24 08:54:38;;;;;;;5.70;3.57;;;25.30;90.20;;;;;;5012625;28;20462;-66
2023/06/24 08:57:07;;;;;;;6.47;3.40;;;25.30;89.30;;;;;;5012605;28;20590;-66
2023/06/24 08:59:34;;;;;;;4.97;3.20;;;25.40;89.90;;;;;;4995177;28;20463;-67
2023/06/24 09:02:02;;;;;;;5.20;3.00;;;25.60;89.20;;;;;;5012437;28;20541;-67
2023/06/24 09:04:29;;;;;;;5.47;3.43;;;25.70;88.00;;;;;;5012314;28;20455;-67
2023/06/24 09:06:57;;;;;;;4.07;2.80;;;25.90;86.30;;;;;;5012287;28;20463;-67
2023/06/24 09:09:25;;;;;;;4.97;3.10;;;26.00;84.10;;;;;;5012466;28;20463;-67
2023/06/24 09:11:58;;;;;;;4.43;3.10;;;26.10;85.20;;;;;;5012266;28;20879;-67
2023/06/24 09:14:26;;;;;;;5.03;3.20;;;26.30;84.90;;;;;;5012595;28;20462;-67
2023/06/24 09:16:54;;;;;;;4.73;3.00;;;26.40;84.50;;;;;;5011284;28;20457;-67
2023/06/24 09:19:23;;;;;;;5.10;3.20;;;26.40;82.90;;;;;;5012246;28;20825;-67
2023/06/24 09:21:51;;;;;;;4.87;3.20;;;26.50;83.70;;;;;;5012222;28;20570;-67
2023/06/24 09:24:19;;;;;;;5.07;3.50;;;26.60;83.00;;;;;;5011954;28;20884;-67
2023/06/24 09:26:46;;;;;;;5.17;3.40;;;26.50;82.70;;;;;;5012169;28;20577;-66
2023/06/24 09:29:15;;;;;;;7.17;3.40;;;26.30;82.50;;;;;;5012113;28;20526;-67
2023/06/24 09:31:49;;;;;;;5.80;3.20;;;26.40;83.40;;;;;;5012167;28;20462;-67
2023/06/24 09:34:17;;;;;;;3.60;2.73;;;26.60;82.30;;;;;;5012507;28;20540;-67
2023/06/24 09:36:45;;;;;;;5.97;3.43;;;26.50;82.50;;;;;;5012316;28;20451;-67
2023/06/24 09:39:12;;;;;;;4.97;3.40;;;26.60;82.40;;;;;;5011761;28;21033;-67
2023/06/24 09:41:42;;;;;;;5.70;3.20;;;26.70;80.80;;;;;;5011987;28;20451;-67
2023/06/24 09:44:12;;;;;;;7.83;3.20;;;26.70;80.40;;;;;;5010565;28;20550;-67
2023/06/24 09:46:43;;;;;;;4.57;3.23;;;26.80;81.30;;;;;;5011787;28;20534;-67
2023/06/24 09:49:11;;;;;;;5.03;3.40;;;27.00;82.30;;;;;;5011611;28;20458;-67
2023/06/24 09:51:40;;;;;;;4.27;3.07;;;27.30;81.40;;;;;;5010667;28;20513;-67
2023/06/24 09:54:07;;;;;;;4.00;2.80;;;27.40;80.80;;;;;;5011639;28;20945;-67
2023/06/24 09:56:38;;;;;;;5.27;3.33;;;27.60;81.10;;;;;;5011687;28;20463;-67
2023/06/24 09:59:06;;;;;;;5.50;3.10;;;27.70;79.70;;;;;;5011396;28;20499;-67
2023/06/24 10:01:36;;;;;;;5.97;3.60;;;27.70;79.40;;;;;;5011398;28;20567;-67
2023/06/24 10:04:07;;;;;;;5.30;3.40;;;27.90;80.10;;;;;;5011509;28;20462;-66
2023/06/24 10:06:35;;;;;;;5.03;3.40;;;28.00;79.50;;;;;;5011961;28;20483;-66
2023/06/24 10:09:03;;;;;;;5.43;3.80;;;28.10;78.60;;;;;;5012091;28;20470;-66
2023/06/24 10:11:31;;;;;;;8.53;3.73;;;28.20;77.90;;;;;;5010988;28;20462;-67
2023/06/24 10:13:58;;;;;;;5.00;3.27;;;28.10;77.80;;;;;;5012023;28;20459;-67
2023/06/24 10:16:25;;;;;;;3.80;2.70;;;28.00;78.60;;;;;;5012070;28;20530;-67
2023/06/24 10:18:53;;;;;;;5.40;3.27;;;28.10;78.10;;;;;;5011776;28;20465;-66
2023/06/24 10:21:21;;;;;;;4.87;3.53;;;28.10;78.30;;;;;;5011200;28;20471;-66
2023/06/24 10:23:53;;;;;;;5.10;3.50;;;27.90;78.20;;;;;;5012135;28;20456;-63
2023/06/24 10:26:28;;;;;;;5.73;3.10;;;28.00;77.70;;;;;;5012234;28;20479;-63
2023/06/24 10:29:17;;;;;;;4.57;3.27;;;28.10;78.20;;;;;;5015790;28;20459;-64
2023/06/24 10:31:56;;;;;;;4.23;2.97;;;28.40;77.60;;;;;;5031667;28;20450;-64
2023/06/24 10:34:33;;;;;;;4.90;3.10;;;28.60;76.00;;;;;;5026192;28;20455;-64
2023/06/24 10:37:03;;;;;;;4.37;3.13;;;28.70;75.60;;;;;;5015522;28;20533;-64
2023/06/24 10:39:48;;;;;;;4.37;3.20;;;28.90;76.40;;;;;;5015378;28;20521;-63
2023/06/24 10:42:33;;;;;;;4.10;2.97;;;29.20;74.10;;;;;;5015681;28;20456;-63
2023/06/24 10:45:02;;;;;;;5.70;3.43;;;29.30;74.10;;;;;;5015423;28;20451;-64
2023/06/24 10:47:30;;;;;;;5.50;3.17;;;29.40;74.50;;;;;;5014066;28;20493;-64
2023/06/24 10:49:58;;;;;;;4.60;3.20;;;29.70;73.40;;;;;;5015436;28;20550;-65
2023/06/24 10:52:26;;;;;;;4.87;3.30;;;29.70;73.40;;;;;;5015622;28;20543;-69
2023/06/24 10:54:54;;;;;;;5.47;3.30;;;29.90;72.90;;;;;;5015344;28;20467;-67
2023/06/24 10:57:26;;;;;;;4.03;3.20;;;30.00;72.00;;;;;;5014149;28;20538;-62
2023/06/24 10:59:55;;;;;;;4.97;3.63;;;30.10;72.10;;;;;;5015485;28;20462;-65
2023/06/24 11:02:24;;;;;;;5.40;3.13;;;30.30;71.50;;;;;;5015350;28;20471;-66
2023/06/24 11:04:52;;;;;;;4.40;3.13;;;30.20;71.60;;;;;;5015340;28;20452;-65
2023/06/24 11:07:23;;;;;;;4.80;3.23;;;29.70;71.90;;;;;;5015450;28;20459;-69
2023/06/24 11:09:52;;;;;;;4.30;3.17;;;29.30;71.70;;;;;;5015556;28;20839;-67
2023/06/24 11:12:19;;;;;;;3.90;2.80;;;29.40;72.20;;;;;;5015507;28;20463;-67
2023/06/24 11:14:46;;;;;;;5.33;3.30;;;29.50;71.00;;;;;;5015316;28;20542;-69
2023/06/24 11:17:15;;;;;;;3.93;2.90;;;29.90;70.30;;;;;;5015422;28;20463;-68
2023/06/24 11:19:43;;;;;;;4.10;3.10;;;30.20;70.40;;;;;;5015186;28;20854;-68
2023/06/24 11:22:11;;;;;;;4.43;3.30;;;30.50;70.10;;;;;;5014138;28;20448;-69
2023/06/24 11:24:39;;;;;;;5.57;3.50;;;30.90;69.70;;;;;;5013908;28;20455;-67
2023/06/24 11:27:07;;;;;;;4.80;3.13;;;31.20;68.40;;;;;;5014589;28;20574;-66
2023/06/24 11:29:35;;;;;;;5.17;3.23;;;31.40;67.00;;;;;;5014862;28;21024;-66
2023/06/24 11:32:04;;;;;;;4.57;3.17;;;31.60;65.80;;;;;;5014519;28;20967;-66
2023/06/24 11:34:31;;;;;;;4.53;3.10;;;31.30;66.40;;;;;;5014824;28;20460;-66
2023/06/24 11:36:58;;;;;;;4.40;2.93;;;31.10;66.40;;;;;;5014403;28;20467;-66
2023/06/24 11:39:27;;;;;;;4.10;3.20;;;31.10;66.80;;;;;;5013047;28;20455;-67
2023/06/24 11:41:54;;;;;;;5.30;3.20;;;31.40;66.60;;;;;;5014539;28;21020;-68
2023/06/24 11:44:25;;;;;;;5.40;3.60;;;31.50;66.90;;;;;;5014421;28;20460;-67
2023/06/24 11:46:52;;;;;;;4.17;3.00;;;31.60;66.70;;;;;;5014246;28;20494;-67
2023/06/24 11:49:20;;;;;;;4.80;3.00;;;31.40;67.20;;;;;;5014590;28;20467;-67
2023/06/24 11:51:49;;;;;;;4.07;2.90;;;31.40;68.10;;;;;;5014475;28;20459;-67
2023/06/24 11:54:17;;;;;;;4.80;3.30;;;31.50;67.60;;;;;;5025876;28;20459;-67
2023/06/24 11:56:50;;;;;;;5.80;3.33;;;31.50;67.80;;;;;;5034039;28;20451;-67
2023/06/24 11:59:18;;;;;;;5.10;3.60;;;31.70;66.80;;;;;;5034146;28;20469;-67
2023/06/24 12:01:53;;;;;;;5.13;3.37;;;32.20;66.30;;;;;;5034159;28;20455;-67
2023/06/24 12:04:21;;;;;;;4.37;3.10;;;32.70;64.10;;;;;;5034314;28;20486;-67
2023/06/24 12:06:48;;;;;;;4.07;2.97;;;32.90;63.90;;;;;;5033977;28;20486;-69
2023/06/24 12:09:15;;;;;;;4.87;3.30;;;33.00;62.90;;;;;;5034057;28;20451;-70
2023/06/24 12:11:43;;;;;;;4.17;2.97;;;33.30;62.70;;;;;;5034210;28;20931;-69
2023/06/24 12:14:10;;;;;;;5.50;3.40;;;33.30;64.30;;;;;;5032878;28;20458;-68
2023/06/24 12:16:37;;;;;;;5.97;3.93;;;33.60;61.70;;;;;;5034073;28;21011;-70
2023/06/24 12:19:07;;;;;;;4.57;3.30;;;33.70;61.50;;;;;;5033426;28;20465;-70
2023/06/24 12:21:34;;;;;;;5.57;3.60;;;33.80;61.50;;;;;;5208839;22;20495;-68
2023/06/24 12:24:02;;;;;;;5.70;3.43;;;34.10;62.20;;;;;;5013736;28;20452;-68
2023/06/24 12:26:29;;;;;;;4.73;3.23;;;34.10;62.00;;;;;;5013880;28;20490;-67
2023/06/24 12:28:56;;;;;;;5.13;3.40;;;34.00;61.30;;;;;;5021389;28;20530;-67
2023/06/24 12:31:25;;;;;;;4.63;3.30;;;33.80;61.70;;;;;;5022472;28;20487;-67
2023/06/24 12:33:53;;;;;;;4.70;3.20;;;33.90;62.50;;;;;;5031582;28;20459;-70
2023/06/24 12:36:22;;;;;;;4.20;3.17;;;34.30;61.60;;;;;;5031369;28;20458;-68
2023/06/24 12:38:50;;;;;;;4.80;3.30;;;34.70;61.50;;;;;;5032672;28;20974;-69
2023/06/24 12:41:18;;;;;;;4.30;3.00;;;34.70;61.40;;;;;;5032581;28;20470;-66
2023/06/24 12:43:45;;;;;;;4.20;3.00;;;34.80;60.60;;;;;;5032552;28;20454;-66
2023/06/24 12:46:12;;;;;;;5.00;3.43;;;34.90;60.50;;;;;;5015266;28;20902;-67
2023/06/24 12:48:39;;;;;;;4.70;3.33;;;34.90;60.00;;;;;;5012761;28;20459;-67
2023/06/24 12:51:06;;;;;;;4.53;3.10;;;34.90;59.40;;;;;;5012463;28;21025;-67
2023/06/24 12:53:34;;;;;;;4.37;3.20;;;34.80;59.30;;;;;;5012774;28;20460;-67